createdAt,value
2022-10-05T00:00:55.652Z,101761.91
2022-10-05T00:03:24.108Z,101756.56
2022-10-05T00:05:50.642Z,101756.06
2022-10-05T00:08:25.144Z,101760.94
2022-10-05T00:10:52.473Z,101758.38
2022-10-05T00:13:28.113Z,101762.91
2022-10-05T00:16:04.885Z,101754.47
2022-10-05T00:18:32.543Z,101744.34
2022-10-05T00:20:59.919Z,101741.59
2022-10-05T00:23:30.919Z,101739.59
2022-10-05T00:26:06.681Z,101743.19
2022-10-05T00:28:33.163Z,101744.59
2022-10-05T00:31:00.955Z,101744.06
2022-10-05T00:33:27.935Z,101732.41
2022-10-05T00:35:55.450Z,101742.66
2022-10-05T00:38:22.365Z,101725.22
2022-10-05T00:41:11.492Z,101731.56
2022-10-05T00:44:08.268Z,101728.78
2022-10-05T00:46:53.708Z,101732.09
2022-10-05T00:49:43.550Z,101730.41
2022-10-05T00:52:43.913Z,101742.28
2022-10-05T00:55:30.665Z,101734.59
2022-10-05T00:58:25.047Z,101728.50
2022-10-05T01:01:27.194Z,101739.22
2022-10-05T01:03:53.666Z,101731.47
2022-10-05T01:06:43.444Z,101733.63
2022-10-05T01:09:35.737Z,101730.94
2022-10-05T01:12:09.002Z,101721.16
2022-10-05T01:14:56.258Z,101717.06
2022-10-05T01:17:45.140Z,101714.84
2022-10-05T01:20:27.949Z,101709.78
2022-10-05T01:23:22.124Z,101710.09
2022-10-05T01:26:07.357Z,101693.75
2022-10-05T01:28:44.035Z,101699.66
2022-10-05T01:31:39.651Z,101702.09
2022-10-05T01:34:43.017Z,101708.63
2022-10-05T01:37:29.655Z,101704.47
2022-10-05T01:40:00.492Z,101696.94
2022-10-05T01:42:59.024Z,101697.28
2022-10-05T01:45:52.857Z,101703.53
2022-10-05T01:48:47.503Z,101688.94
2022-10-05T01:51:41.953Z,101687.59
2022-10-05T01:54:21.965Z,101677.06
2022-10-05T01:57:29.999Z,101675.22
2022-10-05T02:00:10.069Z,101665.03
2022-10-05T02:02:50.328Z,101657.06
2022-10-05T02:05:55.463Z,101659.56
2022-10-05T02:08:30.324Z,101661.00
2022-10-05T02:11:06.076Z,101658.16
2022-10-05T02:13:32.636Z,101648.75
2022-10-05T02:16:35.725Z,101654.56
2022-10-05T02:19:11.836Z,101658.28
2022-10-05T02:21:45.086Z,101657.53
2022-10-05T02:24:22.053Z,101644.19
2022-10-05T02:26:52.733Z,101644.78
2022-10-05T02:29:23.829Z,101646.63
2022-10-05T02:32:00.404Z,101633.75
2022-10-05T02:34:41.454Z,101632.72
2022-10-05T02:37:34.685Z,101614.00
2022-10-05T02:40:41.411Z,101623.88
2022-10-05T02:43:32.738Z,101618.03
2022-10-05T02:46:15.243Z,101615.25
2022-10-05T02:48:54.936Z,101615.81
2022-10-05T02:51:30.229Z,101610.03
2022-10-05T02:53:56.646Z,101605.88
2022-10-05T02:56:44.505Z,101609.41
2022-10-05T02:59:21.833Z,101601.06
2022-10-05T03:01:56.267Z,101601.16
2022-10-05T03:04:38.381Z,101594.81
2022-10-05T03:07:20.817Z,101593.97
2022-10-05T03:10:05.887Z,101595.88
2022-10-05T03:12:52.921Z,101591.72
2022-10-05T03:15:40.133Z,101582.88
2022-10-05T03:18:18.875Z,101592.81
2022-10-05T03:21:09.997Z,101591.13
2022-10-05T03:23:42.585Z,101588.91
2022-10-05T03:26:32.616Z,101588.38
2022-10-05T03:29:06.469Z,101589.44
2022-10-05T03:31:59.154Z,101592.75
2022-10-05T03:34:32.973Z,101585.00
2022-10-05T03:37:07.242Z,101582.56
2022-10-05T03:39:46.471Z,101589.44
2022-10-05T03:42:59.756Z,101585.63
2022-10-05T03:45:49.274Z,101584.47
2022-10-05T03:48:23.357Z,101579.94
2022-10-05T03:51:05.099Z,101586.41
2022-10-05T03:53:42.217Z,101582.44
2022-10-05T03:56:18.206Z,101582.84
2022-10-05T03:59:03.782Z,101584.47
2022-10-05T04:01:42.172Z,101593.19
2022-10-05T04:04:15.717Z,101588.28
2022-10-05T04:06:47.999Z,101580.53
2022-10-05T04:09:20.553Z,101591.25
2022-10-05T04:11:54.123Z,101577.78
2022-10-05T04:14:37.824Z,101587.13
2022-10-05T04:17:33.587Z,101589.88
2022-10-05T04:20:06.091Z,101580.69
2022-10-05T04:22:43.834Z,101584.28
2022-10-05T04:25:29.127Z,101584.59
2022-10-05T04:28:17.397Z,101589.72
2022-10-05T04:30:47.698Z,101580.31
2022-10-05T04:33:15.923Z,101576.47
2022-10-05T04:35:50.093Z,101573.16
2022-10-05T04:38:49.087Z,101575.13
2022-10-05T04:41:33.948Z,101579.22
2022-10-05T04:44:39.778Z,101573.97
2022-10-05T04:47:28.599Z,101574.16
2022-10-05T04:50:04.316Z,101567.03
2022-10-05T04:52:36.650Z,101566.47
2022-10-05T04:55:30.144Z,101561.28
2022-10-05T04:58:17.633Z,101565.97
2022-10-05T05:01:12.966Z,101558.22
2022-10-05T05:04:04.552Z,101562.38
2022-10-05T05:06:45.621Z,101562.91
2022-10-05T05:09:38.078Z,101554.63
2022-10-05T05:12:10.493Z,101556.00
2022-10-05T05:14:53.679Z,101553.56
2022-10-05T05:17:34.056Z,101549.97
2022-10-05T05:20:18.235Z,101552.44
2022-10-05T05:23:08.929Z,101557.47
2022-10-05T05:26:05.778Z,101541.13
2022-10-05T05:28:58.506Z,101548.59
2022-10-05T05:31:33.207Z,101552.19
2022-10-05T05:34:19.999Z,101544.47
2022-10-05T05:37:09.166Z,101549.97
2022-10-05T05:39:44.729Z,101541.13
2022-10-05T05:42:21.476Z,101542.78
2022-10-05T05:44:56.013Z,101547.44
2022-10-05T05:47:37.756Z,101544.97
2022-10-05T05:50:33.193Z,101540.88
2022-10-05T05:53:10.867Z,101540.88
2022-10-05T05:55:46.139Z,101544.91
2022-10-05T05:58:27.273Z,101539.16
2022-10-05T06:01:20.226Z,101539.31
2022-10-05T06:04:10.653Z,101537.16
2022-10-05T06:06:42.372Z,101529.38
2022-10-05T06:09:43.208Z,101532.72
2022-10-05T06:12:41.475Z,101533.16
2022-10-05T06:15:24.484Z,101537.00
2022-10-05T06:17:55.868Z,101531.00
2022-10-05T06:20:30.699Z,101534.84
2022-10-05T06:23:04.777Z,101538.16
2022-10-05T06:25:50.716Z,101531.66
2022-10-05T06:28:19.526Z,101534.88
2022-10-05T06:31:11.257Z,101535.47
2022-10-05T06:33:52.391Z,101525.50
2022-10-05T06:36:59.549Z,101533.81
2022-10-05T06:39:33.483Z,101525.50
2022-10-05T06:42:22.423Z,101528.25
2022-10-05T06:45:38.655Z,101534.66
2022-10-05T06:48:24.387Z,101533.81
2022-10-05T06:51:26.628Z,101534.09
2022-10-05T06:54:28.019Z,101532.50
2022-10-05T06:57:33.179Z,101534.97
2022-10-05T07:00:15.809Z,101541.06
2022-10-05T07:02:52.240Z,101542.47
2022-10-05T07:05:24.805Z,101539.63
2022-10-05T07:08:13.637Z,101539.72
2022-10-05T07:11:07.270Z,101546.25
2022-10-05T07:13:55.308Z,101547.66
2022-10-05T07:16:50.491Z,101537.78
2022-10-05T07:19:44.972Z,101542.78
2022-10-05T07:22:23.654Z,101535.38
2022-10-05T07:25:21.168Z,101545.84
2022-10-05T07:27:55.631Z,101545.03
2022-10-05T07:30:22.672Z,101545.63
2022-10-05T07:32:55.887Z,101548.69
2022-10-05T07:35:51.625Z,101549.75
2022-10-05T07:38:45.871Z,101550.09
2022-10-05T07:41:23.798Z,101540.75
2022-10-05T07:44:02.434Z,101549.00
2022-10-05T07:46:51.125Z,101550.69
2022-10-05T07:49:32.442Z,101549.56
2022-10-05T07:52:06.835Z,101547.94
2022-10-05T07:54:44.150Z,101549.06
2022-10-05T07:57:29.886Z,101551.31
2022-10-05T08:00:05.785Z,101548.81
2022-10-05T08:02:59.952Z,101552.97
2022-10-05T08:05:30.924Z,101551.38
2022-10-05T08:08:13.319Z,101543.69
2022-10-05T08:10:55.111Z,101543.44
2022-10-05T08:13:35.135Z,101536.81
2022-10-05T08:16:05.851Z,101541.84
2022-10-05T08:19:00.503Z,101535.53
2022-10-05T08:21:40.097Z,101523.41
2022-10-05T08:24:18.932Z,101530.59
2022-10-05T08:26:51.828Z,101530.91
2022-10-05T08:29:32.869Z,101524.88
2022-10-05T08:32:05.052Z,101527.38
2022-10-05T08:34:53.315Z,101526.03
2022-10-05T08:37:40.521Z,101519.16
2022-10-05T08:40:18.858Z,101518.66
2022-10-05T08:43:37.608Z,101520.38
2022-10-05T08:46:22.354Z,101513.78
2022-10-05T08:49:19.581Z,101516.59
2022-10-05T08:52:23.587Z,101504.19
2022-10-05T08:55:22.848Z,101510.03
2022-10-05T08:58:18.448Z,101503.97
2022-10-05T09:01:14.253Z,101500.38
2022-10-05T09:04:11.431Z,101501.31
2022-10-05T09:07:16.356Z,101500.78
2022-10-05T09:10:00.811Z,101498.31
2022-10-05T09:12:50.191Z,101495.88
2022-10-05T09:15:52.224Z,101494.53
2022-10-05T09:18:37.440Z,101493.22
2022-10-05T09:21:13.989Z,101495.97
2022-10-05T09:23:44.929Z,101500.66
2022-10-05T09:26:50.073Z,101498.50
2022-10-05T09:29:38.389Z,101493.81
2022-10-05T09:32:40.712Z,101490.53
2022-10-05T09:35:21.204Z,101493.28
2022-10-05T09:37:59.909Z,101490.28
2022-10-05T09:40:54.996Z,101480.69
2022-10-05T09:43:40.232Z,101484.56
2022-10-05T09:46:21.894Z,101480.72
2022-10-05T09:49:11.437Z,101476.59
2022-10-05T09:52:06.041Z,101476.91
2022-10-05T09:54:56.783Z,101482.75
2022-10-05T09:57:53.203Z,101468.97
2022-10-05T10:00:34.767Z,101467.03
2022-10-05T10:03:52.272Z,101458.78
2022-10-05T10:06:39.680Z,101455.50
2022-10-05T10:09:18.277Z,101458.28
2022-10-05T10:12:16.886Z,101456.66
2022-10-05T10:15:07.942Z,101450.00
2022-10-05T10:17:53.815Z,101435.69
2022-10-05T10:20:20.229Z,101443.72
2022-10-05T10:23:09.767Z,101437.94
2022-10-05T10:25:58.388Z,101435.47
2022-10-05T10:28:43.352Z,101434.13
2022-10-05T10:31:37.722Z,101437.75
2022-10-05T10:35:04.020Z,101432.78
2022-10-05T10:37:58.434Z,101428.97
2022-10-05T10:40:38.887Z,101416.56
2022-10-05T10:43:41.082Z,101418.75
2022-10-05T10:46:20.554Z,101416.03
2022-10-05T10:49:25.987Z,101412.16
2022-10-05T10:52:09.005Z,101401.66
2022-10-05T10:54:58.373Z,101412.19
2022-10-05T10:57:44.766Z,101403.88
2022-10-05T11:00:39.120Z,101405.00
2022-10-05T11:03:42.064Z,101406.63
2022-10-05T11:06:33.366Z,101398.91
2022-10-05T11:09:31.442Z,101392.56
2022-10-05T11:12:10.424Z,101398.06
2022-10-05T11:15:06.394Z,101399.19
2022-10-05T11:17:59.419Z,101401.69
2022-10-05T11:20:59.729Z,101394.75
2022-10-05T11:23:47.559Z,101397.81
2022-10-05T11:26:57.855Z,101382.59
2022-10-05T11:30:10.613Z,101382.88
2022-10-05T11:32:56.137Z,101374.00
2022-10-05T11:35:36.418Z,101365.75
2022-10-05T11:38:36.704Z,101357.97
2022-10-05T11:41:12.221Z,101353.50
2022-10-05T11:43:47.464Z,101354.06
2022-10-05T11:46:38.714Z,101347.13
2022-10-05T11:49:21.879Z,101350.69
2022-10-05T11:52:10.032Z,101353.44
2022-10-05T11:55:10.350Z,101345.97
2022-10-05T11:57:47.899Z,101344.81
2022-10-05T12:00:23.708Z,101339.53
2022-10-05T12:03:03.105Z,101326.78
2022-10-05T12:05:48.197Z,101320.66
2022-10-05T12:08:53.663Z,101315.09
2022-10-05T12:11:44.022Z,101299.50
2022-10-05T12:14:17.867Z,101302.19
2022-10-05T12:16:49.446Z,101292.75
2022-10-05T12:19:29.732Z,101303.50
2022-10-05T12:21:56.226Z,101294.81
2022-10-05T12:24:37.576Z,101300.88
2022-10-05T12:27:25.234Z,101298.69
2022-10-05T12:30:18.602Z,101295.53
2022-10-05T12:32:55.874Z,101290.44
2022-10-05T12:35:48.406Z,101295.59
2022-10-05T12:39:03.534Z,101283.38
2022-10-05T12:41:38.411Z,101277.44
2022-10-05T12:44:11.229Z,101282.03
2022-10-05T12:47:03.922Z,101286.84
2022-10-05T12:50:05.349Z,101289.34
2022-10-05T12:53:14.915Z,101292.34
2022-10-05T12:56:06.029Z,101292.41
2022-10-05T12:58:38.915Z,101294.09
2022-10-05T13:01:25.318Z,101294.41
2022-10-05T13:04:38.341Z,101297.38
2022-10-05T13:07:12.658Z,101290.00
2022-10-05T13:09:54.657Z,101286.63
2022-10-05T13:12:38.693Z,101282.94
2022-10-05T13:15:20.045Z,101285.44
2022-10-05T13:18:14.956Z,101290.91
2022-10-05T13:20:54.339Z,101290.84
2022-10-05T13:23:49.497Z,101290.09
2022-10-05T13:26:27.669Z,101297.13
2022-10-05T13:29:26.713Z,101294.34
2022-10-05T13:32:15.203Z,101291.69
2022-10-05T13:35:11.380Z,101303.00
2022-10-05T13:38:08.335Z,101296.22
2022-10-05T13:40:57.877Z,101300.22
2022-10-05T13:43:31.688Z,101296.00
2022-10-05T13:46:12.660Z,101300.78
2022-10-05T13:49:00.729Z,101294.75
2022-10-05T13:51:54.556Z,101311.66
2022-10-05T13:54:20.965Z,101304.56
2022-10-05T13:57:08.676Z,101300.16
2022-10-05T13:59:55.423Z,101302.66
2022-10-05T14:02:38.198Z,101299.97
2022-10-05T14:05:19.761Z,101310.25
2022-10-05T14:07:51.127Z,101299.50
2022-10-05T14:10:32.661Z,101303.97
2022-10-05T14:13:00.805Z,101300.91
2022-10-05T14:15:38.461Z,101302.59
2022-10-05T14:18:28.601Z,101312.06
2022-10-05T14:21:13.171Z,101310.72
2022-10-05T14:23:40.064Z,101302.13
2022-10-05T14:26:39.064Z,101320.16
2022-10-05T14:29:14.320Z,101309.31
2022-10-05T14:31:48.004Z,101308.16
2022-10-05T14:34:41.829Z,101317.03
2022-10-05T14:37:24.635Z,101315.94
2022-10-05T14:39:54.599Z,101322.97
2022-10-05T14:42:28.671Z,101333.59
2022-10-05T14:45:17.649Z,101319.44
2022-10-05T14:48:02.073Z,101337.78
2022-10-05T14:50:31.245Z,101315.88
2022-10-05T14:53:21.126Z,101350.25
2022-10-05T14:56:25.133Z,101332.53
2022-10-05T14:59:21.196Z,101342.03
2022-10-05T15:02:19.649Z,101352.78
2022-10-05T15:05:15.208Z,101366.69
2022-10-05T15:07:44.414Z,101377.25
2022-10-05T15:10:38.038Z,101391.97
2022-10-05T15:13:24.089Z,101397.84
2022-10-05T15:15:56.765Z,101413.97
2022-10-05T15:18:32.001Z,101420.41
2022-10-05T15:21:13.976Z,101410.75
2022-10-05T15:23:47.179Z,101422.47
2022-10-05T15:26:25.065Z,101420.28
2022-10-05T15:29:01.405Z,101411.44
2022-10-05T15:31:42.816Z,101417.00
2022-10-05T15:34:42.021Z,101409.50
2022-10-05T15:37:17.691Z,101406.47
2022-10-05T15:39:59.962Z,101410.94
2022-10-05T15:42:38.197Z,101406.25
2022-10-05T15:45:30.519Z,101406.25
2022-10-05T15:48:07.827Z,101411.78
2022-10-05T15:51:16.886Z,101407.66
2022-10-05T15:54:43.151Z,101405.16
2022-10-05T15:57:20.739Z,101412.66
2022-10-05T16:00:03.974Z,101417.66
2022-10-05T16:03:01.888Z,101419.03
2022-10-05T16:06:04.166Z,101422.91
2022-10-05T16:08:51.746Z,101409.06
2022-10-05T16:11:36.541Z,101423.19
2022-10-05T16:14:40.537Z,101419.31
2022-10-05T16:17:44.907Z,101419.59
2022-10-05T16:20:42.800Z,101425.41
2022-10-05T16:23:09.222Z,101424.88
2022-10-05T16:26:01.362Z,101429.84
2022-10-05T16:29:25.276Z,101430.94
2022-10-05T16:32:04.291Z,101433.72
2022-10-05T16:34:49.557Z,101452.81
2022-10-05T16:37:45.305Z,101444.25
2022-10-05T16:40:20.283Z,101447.28
2022-10-05T16:43:02.300Z,101456.41
2022-10-05T16:45:47.065Z,101450.31
2022-10-05T16:48:27.892Z,101452.25
2022-10-05T16:51:23.150Z,101456.69
2022-10-05T16:54:01.396Z,101465.81
2022-10-05T16:56:37.451Z,101464.69
2022-10-05T16:59:36.589Z,101470.78
2022-10-05T17:02:22.613Z,101462.22
2022-10-05T17:05:22.400Z,101462.53
2022-10-05T17:08:03.754Z,101461.69
2022-10-05T17:10:38.202Z,101465.84
2022-10-05T17:13:07.592Z,101455.88
2022-10-05T17:16:04.057Z,101465.00
2022-10-05T17:19:00.566Z,101474.66
2022-10-05T17:21:41.303Z,101461.94
2022-10-05T17:24:33.570Z,101464.16
2022-10-05T17:27:17.641Z,101461.69
2022-10-05T17:29:51.780Z,101465.84
2022-10-05T17:32:18.253Z,101463.63
2022-10-05T17:35:04.033Z,101477.47
2022-10-05T17:37:31.765Z,101464.72
2022-10-05T17:39:58.909Z,101471.91
2022-10-05T17:42:31.557Z,101475.78
2022-10-05T17:45:00.007Z,101483.00
2022-10-05T17:47:58.474Z,101482.72
2022-10-05T17:51:01.848Z,101494.63
2022-10-05T17:53:52.737Z,101484.09
2022-10-05T17:56:21.988Z,101495.72
2022-10-05T17:58:54.321Z,101494.34
2022-10-05T18:01:40.361Z,101494.63
2022-10-05T18:04:13.087Z,101510.09
2022-10-05T18:06:48.039Z,101512.88
2022-10-05T18:09:16.926Z,101497.41
2022-10-05T18:11:47.945Z,101501.28
2022-10-05T18:14:25.061Z,101510.09
2022-10-05T18:17:02.011Z,101517.56
2022-10-05T18:19:33.103Z,101510.66
2022-10-05T18:22:06.056Z,101501.53
2022-10-05T18:24:52.970Z,101507.88
2022-10-05T18:27:49.656Z,101517.56
2022-10-05T18:30:25.072Z,101513.44
2022-10-05T18:33:27.983Z,101517.88
2022-10-05T18:36:16.965Z,101521.75
2022-10-05T18:39:19.863Z,101531.97
2022-10-05T18:41:57.747Z,101523.09
2022-10-05T18:44:43.226Z,101522.84
2022-10-05T18:47:34.414Z,101528.94
2022-10-05T18:50:17.323Z,101523.41
2022-10-05T18:53:11.887Z,101534.19
2022-10-05T18:55:45.045Z,101530.03
2022-10-05T18:58:22.376Z,101534.47
2022-10-05T19:01:10.645Z,101528.94
2022-10-05T19:04:13.932Z,101541.66
2022-10-05T19:06:41.214Z,101525.03
2022-10-05T19:09:35.248Z,101546.34
2022-10-05T19:12:29.253Z,101551.09
2022-10-05T19:15:06.844Z,101552.72
2022-10-05T19:17:48.050Z,101560.19
2022-10-05T19:20:27.096Z,101559.94
2022-10-05T19:23:22.231Z,101570.19
2022-10-05T19:25:55.360Z,101562.97
2022-10-05T19:28:34.100Z,101577.66
2022-10-05T19:31:12.844Z,101586.47
2022-10-05T19:34:01.509Z,101599.53
2022-10-05T19:36:43.804Z,101591.47
2022-10-05T19:39:21.315Z,101612.53
2022-10-05T19:42:15.291Z,101623.31
2022-10-05T19:45:00.096Z,101637.94
2022-10-05T19:48:03.829Z,101627.72
2022-10-05T19:50:33.546Z,101627.94
2022-10-05T19:53:08.050Z,101630.72
2022-10-05T19:55:39.491Z,101649.19
2022-10-05T19:58:22.665Z,101655.63
2022-10-05T20:01:07.789Z,101661.94
2022-10-05T20:03:37.857Z,101667.47
2022-10-05T20:06:07.262Z,101676.56
2022-10-05T20:08:39.600Z,101661.88
2022-10-05T20:11:09.791Z,101668.81
2022-10-05T20:13:39.054Z,101670.16
2022-10-05T20:16:33.456Z,101668.53
2022-10-05T20:19:18.633Z,101670.97
2022-10-05T20:21:48.500Z,101681.50
2022-10-05T20:24:23.355Z,101683.41
2022-10-05T20:27:01.902Z,101691.97
2022-10-05T20:29:30.118Z,101699.69
2022-10-05T20:31:56.842Z,101700.25
2022-10-05T20:34:24.017Z,101706.34
2022-10-05T20:36:51.058Z,101721.53
2022-10-05T20:39:18.646Z,101717.91
2022-10-05T20:41:45.632Z,101716.78
2022-10-05T20:44:13.239Z,101735.31
2022-10-05T20:46:41.605Z,101728.66
2022-10-05T20:49:10.550Z,101753.84
2022-10-05T20:51:40.382Z,101751.28
2022-10-05T20:54:07.889Z,101756.25
2022-10-05T20:56:34.771Z,101755.13
2022-10-05T20:59:01.318Z,101758.97
2022-10-05T21:01:28.854Z,101764.19
2022-10-05T21:03:55.786Z,101777.47
2022-10-05T21:06:22.776Z,101769.44
2022-10-05T21:08:51.327Z,101778.59
2022-10-05T21:11:17.842Z,101795.13
2022-10-05T21:13:47.541Z,101804.50
2022-10-05T21:16:16.648Z,101819.41
2022-10-05T21:18:46.751Z,101846.91
2022-10-05T21:21:17.942Z,101866.72
2022-10-05T21:23:45.699Z,101851.16
2022-10-05T21:26:12.780Z,101847.13
2022-10-05T21:28:39.905Z,101860.22
2022-10-05T21:31:08.095Z,101867.78
2022-10-05T21:33:35.387Z,101883.31
2022-10-05T21:36:01.989Z,101867.13
2022-10-05T21:38:29.603Z,101862.63
2022-10-05T21:40:56.381Z,101862.88
2022-10-05T21:43:22.831Z,101871.06
2022-10-05T21:45:50.365Z,101882.69
2022-10-05T21:48:18.470Z,101883.22
2022-10-05T21:50:45.676Z,101882.38
2022-10-05T21:53:14.673Z,101887.38
2022-10-05T21:55:44.095Z,101894.72
2022-10-05T21:58:13.248Z,101901.94
2022-10-05T22:00:40.998Z,101914.88
2022-10-05T22:03:08.528Z,101916.13
2022-10-05T22:05:35.546Z,101918.91
2022-10-05T22:08:03.401Z,101926.84
2022-10-05T22:10:30.366Z,101923.41
2022-10-05T22:13:01.493Z,101933.09
2022-10-05T22:15:29.960Z,101936.19
2022-10-05T22:17:59.711Z,101952.41
2022-10-05T22:20:30.111Z,101951.25
2022-10-05T22:22:56.690Z,101964.78
2022-10-05T22:25:23.154Z,101959.91
2022-10-05T22:27:50.029Z,101958.75
2022-10-05T22:30:16.927Z,101957.59
2022-10-05T22:32:43.998Z,101990.66
2022-10-05T22:35:11.773Z,101991.13
2022-10-05T22:37:38.637Z,101996.16
2022-10-05T22:40:06.655Z,102004.91
2022-10-05T22:42:33.616Z,102003.00
2022-10-05T22:45:00.165Z,102005.31
2022-10-05T22:47:26.629Z,102011.53
2022-10-05T22:49:53.100Z,102017.84
2022-10-05T22:52:19.569Z,102023.84
2022-10-05T22:54:46.016Z,102016.16
2022-10-05T22:57:12.469Z,102023.13
2022-10-05T22:59:38.935Z,102027.47
2022-10-05T23:02:05.546Z,102032.84
2022-10-05T23:04:32.070Z,102037.34
2022-10-05T23:06:58.900Z,102045.19
2022-10-05T23:09:25.364Z,102051.63
2022-10-05T23:11:54.134Z,102052.38
2022-10-05T23:14:20.917Z,102055.72
2022-10-05T23:16:47.736Z,102064.72
2022-10-05T23:19:14.259Z,102053.44
2022-10-05T23:21:40.719Z,102056.19
2022-10-05T23:24:07.441Z,102063.38
2022-10-05T23:26:34.635Z,102071.53
2022-10-05T23:29:01.127Z,102072.53
2022-10-05T23:31:30.655Z,102082.88
2022-10-05T23:33:57.249Z,102087.66
2022-10-05T23:36:26.776Z,102088.25
2022-10-05T23:38:53.395Z,102090.88
2022-10-05T23:41:20.303Z,102101.91
2022-10-05T23:43:47.111Z,102101.09
2022-10-05T23:46:14.225Z,102109.22
2022-10-05T23:48:40.759Z,102113.03
2022-10-05T23:51:09.414Z,102129.34
2022-10-05T23:53:35.952Z,102128.03
2022-10-05T23:56:02.971Z,102133.88
2022-10-05T23:58:30.094Z,102138.69
